sensor_id;sensor_type;location;lat;lon;timestamp;P1;durP1;ratioP1;P2;durP2;ratioP2
7057;SDS011;3570;43.080;25.628;2022-11-14T00:01:23;22.97;;;12.57;;
7057;SDS011;3570;43.080;25.628;2022-11-14T00:04:07;27.60;;;13.03;;
7057;SDS011;3570;43.080;25.628;2022-11-14T00:06:51;20.77;;;12.40;;
7057;SDS011;3570;43.080;25.628;2022-11-14T00:09:35;19.83;;;10.73;;
7057;SDS011;3570;43.080;25.628;2022-11-14T00:12:21;21.70;;;12.63;;
7057;SDS011;3570;43.080;25.628;2022-11-14T00:15:05;19.87;;;11.43;;
7057;SDS011;3570;43.080;25.628;2022-11-14T00:17:50;20.03;;;11.90;;
7057;SDS011;3570;43.080;25.628;2022-11-14T00:20:34;17.73;;;11.27;;
7057;SDS011;3570;43.080;25.628;2022-11-14T00:23:19;19.73;;;10.50;;
7057;SDS011;3570;43.080;25.628;2022-11-14T00:26:03;30.30;;;12.00;;
7057;SDS011;3570;43.080;25.628;2022-11-14T00:28:47;26.17;;;12.73;;
7057;SDS011;3570;43.080;25.628;2022-11-14T00:31:31;28.83;;;11.93;;
7057;SDS011;3570;43.080;25.628;2022-11-14T00:34:15;23.90;;;12.50;;
7057;SDS011;3570;43.080;25.628;2022-11-14T00:36:59;25.87;;;12.43;;
7057;SDS011;3570;43.080;25.628;2022-11-14T00:39:44;23.67;;;10.27;;
7057;SDS011;3570;43.080;25.628;2022-11-14T00:42:27;18.03;;;11.17;;
7057;SDS011;3570;43.080;25.628;2022-11-14T00:45:11;20.57;;;11.53;;
7057;SDS011;3570;43.080;25.628;2022-11-14T00:47:55;20.50;;;11.07;;
7057;SDS011;3570;43.080;25.628;2022-11-14T00:50:39;14.30;;;9.57;;
7057;SDS011;3570;43.080;25.628;2022-11-14T00:53:23;18.73;;;9.17;;
7057;SDS011;3570;43.080;25.628;2022-11-14T00:56:08;21.23;;;9.27;;
7057;SDS011;3570;43.080;25.628;2022-11-14T00:58:51;17.43;;;8.57;;
7057;SDS011;3570;43.080;25.628;2022-11-14T01:01:35;19.10;;;8.90;;
7057;SDS011;3570;43.080;25.628;2022-11-14T01:04:19;18.67;;;8.77;;
7057;SDS011;3570;43.080;25.628;2022-11-14T01:07:03;16.67;;;9.30;;
7057;SDS011;3570;43.080;25.628;2022-11-14T01:09:48;14.57;;;8.73;;
7057;SDS011;3570;43.080;25.628;2022-11-14T01:12:32;16.30;;;9.97;;
7057;SDS011;3570;43.080;25.628;2022-11-14T01:15:17;20.20;;;9.37;;
7057;SDS011;3570;43.080;25.628;2022-11-14T01:18:01;19.13;;;9.63;;
7057;SDS011;3570;43.080;25.628;2022-11-14T01:20:45;18.97;;;9.07;;
7057;SDS011;3570;43.080;25.628;2022-11-14T01:23:30;15.73;;;8.83;;
7057;SDS011;3570;43.080;25.628;2022-11-14T01:26:15;15.83;;;8.87;;
7057;SDS011;3570;43.080;25.628;2022-11-14T01:29:00;18.30;;;10.10;;
7057;SDS011;3570;43.080;25.628;2022-11-14T01:31:44;16.53;;;8.90;;
7057;SDS011;3570;43.080;25.628;2022-11-14T01:34:27;14.90;;;8.93;;
7057;SDS011;3570;43.080;25.628;2022-11-14T01:37:12;18.23;;;8.80;;
7057;SDS011;3570;43.080;25.628;2022-11-14T01:39:56;15.33;;;9.40;;
7057;SDS011;3570;43.080;25.628;2022-11-14T01:42:40;16.33;;;8.43;;
7057;SDS011;3570;43.080;25.628;2022-11-14T01:51:50;16.33;;;9.13;;
7057;SDS011;3570;43.080;25.628;2022-11-14T01:54:50;19.03;;;10.83;;
7057;SDS011;3570;43.080;25.628;2022-11-14T01:57:38;17.23;;;9.60;;
7057;SDS011;3570;43.080;25.628;2022-11-14T02:00:25;19.97;;;10.27;;
7057;SDS011;3570;43.080;25.628;2022-11-14T02:03:10;19.43;;;8.97;;
7057;SDS011;3570;43.080;25.628;2022-11-14T02:05:56;22.57;;;11.37;;
7057;SDS011;3570;43.080;25.628;2022-11-14T02:08:42;19.83;;;10.47;;
7057;SDS011;3570;43.080;25.628;2022-11-14T02:11:28;30.57;;;11.53;;
7057;SDS011;3570;43.080;25.628;2022-11-14T02:14:14;31.63;;;13.37;;
7057;SDS011;3570;43.080;25.628;2022-11-14T02:16:58;25.63;;;14.63;;
7057;SDS011;3570;43.080;25.628;2022-11-14T02:19:47;31.97;;;13.07;;
7057;SDS011;3570;43.080;25.628;2022-11-14T02:22:40;32.10;;;14.73;;
7057;SDS011;3570;43.080;25.628;2022-11-14T02:25:25;32.00;;;16.53;;
7057;SDS011;3570;43.080;25.628;2022-11-14T02:28:10;43.90;;;19.67;;
7057;SDS011;3570;43.080;25.628;2022-11-14T02:30:54;31.47;;;15.57;;
7057;SDS011;3570;43.080;25.628;2022-11-14T02:33:38;44.87;;;16.57;;
7057;SDS011;3570;43.080;25.628;2022-11-14T02:36:23;37.80;;;18.47;;
7057;SDS011;3570;43.080;25.628;2022-11-14T02:39:07;44.67;;;20.40;;
7057;SDS011;3570;43.080;25.628;2022-11-14T02:41:51;43.77;;;19.00;;
7057;SDS011;3570;43.080;25.628;2022-11-14T02:44:35;40.93;;;19.27;;
7057;SDS011;3570;43.080;25.628;2022-11-14T02:47:19;49.33;;;20.83;;
7057;SDS011;3570;43.080;25.628;2022-11-14T02:50:03;40.23;;;18.90;;
7057;SDS011;3570;43.080;25.628;2022-11-14T02:52:48;45.27;;;19.37;;
7057;SDS011;3570;43.080;25.628;2022-11-14T02:55:32;41.53;;;21.97;;
7057;SDS011;3570;43.080;25.628;2022-11-14T02:58:17;47.03;;;21.33;;
7057;SDS011;3570;43.080;25.628;2022-11-14T03:01:01;57.53;;;23.60;;
7057;SDS011;3570;43.080;25.628;2022-11-14T03:03:45;56.70;;;21.97;;
7057;SDS011;3570;43.080;25.628;2022-11-14T03:06:29;54.17;;;17.87;;
7057;SDS011;3570;43.080;25.628;2022-11-14T03:09:13;41.63;;;17.80;;
7057;SDS011;3570;43.080;25.628;2022-11-14T03:11:57;34.50;;;17.93;;
7057;SDS011;3570;43.080;25.628;2022-11-14T03:14:41;46.40;;;17.80;;
7057;SDS011;3570;43.080;25.628;2022-11-14T03:17:25;50.33;;;20.67;;
7057;SDS011;3570;43.080;25.628;2022-11-14T03:20:09;44.50;;;21.57;;
7057;SDS011;3570;43.080;25.628;2022-11-14T03:22:53;60.10;;;23.57;;
7057;SDS011;3570;43.080;25.628;2022-11-14T03:25:37;50.87;;;22.77;;
7057;SDS011;3570;43.080;25.628;2022-11-14T03:28:21;52.13;;;22.00;;
7057;SDS011;3570;43.080;25.628;2022-11-14T03:31:05;55.67;;;24.20;;
7057;SDS011;3570;43.080;25.628;2022-11-14T03:33:51;59.80;;;28.93;;
7057;SDS011;3570;43.080;25.628;2022-11-14T03:36:35;73.37;;;35.63;;
7057;SDS011;3570;43.080;25.628;2022-11-14T03:39:19;67.00;;;27.53;;
7057;SDS011;3570;43.080;25.628;2022-11-14T03:42:03;70.97;;;29.00;;
7057;SDS011;3570;43.080;25.628;2022-11-14T03:44:48;59.37;;;24.83;;
7057;SDS011;3570;43.080;25.628;2022-11-14T03:47:32;50.30;;;22.97;;
7057;SDS011;3570;43.080;25.628;2022-11-14T03:50:16;66.60;;;27.90;;
7057;SDS011;3570;43.080;25.628;2022-11-14T03:53:00;69.27;;;29.30;;
7057;SDS011;3570;43.080;25.628;2022-11-14T03:55:44;54.70;;;22.10;;
7057;SDS011;3570;43.080;25.628;2022-11-14T03:58:29;62.57;;;24.37;;
7057;SDS011;3570;43.080;25.628;2022-11-14T04:01:13;66.73;;;24.60;;
7057;SDS011;3570;43.080;25.628;2022-11-14T04:03:57;60.73;;;26.93;;
7057;SDS011;3570;43.080;25.628;2022-11-14T04:06:41;47.77;;;19.10;;
7057;SDS011;3570;43.080;25.628;2022-11-14T04:09:25;33.50;;;15.13;;
7057;SDS011;3570;43.080;25.628;2022-11-14T04:12:09;26.13;;;11.17;;
7057;SDS011;3570;43.080;25.628;2022-11-14T04:14:52;26.77;;;12.60;;
7057;SDS011;3570;43.080;25.628;2022-11-14T04:17:36;25.63;;;13.57;;
7057;SDS011;3570;43.080;25.628;2022-11-14T04:20:20;17.47;;;10.70;;
7057;SDS011;3570;43.080;25.628;2022-11-14T04:23:04;19.47;;;10.83;;
7057;SDS011;3570;43.080;25.628;2022-11-14T04:25:48;19.13;;;10.03;;
7057;SDS011;3570;43.080;25.628;2022-11-14T04:28:32;18.27;;;9.73;;
7057;SDS011;3570;43.080;25.628;2022-11-14T04:31:16;21.10;;;9.87;;
7057;SDS011;3570;43.080;25.628;2022-11-14T04:34:00;20.63;;;10.97;;
7057;SDS011;3570;43.080;25.628;2022-11-14T04:36:44;28.77;;;12.33;;
7057;SDS011;3570;43.080;25.628;2022-11-14T04:39:28;27.37;;;11.47;;
7057;SDS011;3570;43.080;25.628;2022-11-14T04:42:12;20.40;;;10.77;;
7057;SDS011;3570;43.080;25.628;2022-11-14T04:44:56;25.13;;;10.90;;
7057;SDS011;3570;43.080;25.628;2022-11-14T04:47:41;27.00;;;12.73;;
7057;SDS011;3570;43.080;25.628;2022-11-14T04:50:25;23.63;;;11.93;;
7057;SDS011;3570;43.080;25.628;2022-11-14T04:53:09;19.40;;;10.30;;
7057;SDS011;3570;43.080;25.628;2022-11-14T04:55:53;22.27;;;10.40;;
7057;SDS011;3570;43.080;25.628;2022-11-14T04:58:37;16.87;;;9.97;;
7057;SDS011;3570;43.080;25.628;2022-11-14T05:01:21;22.93;;;10.87;;
7057;SDS011;3570;43.080;25.628;2022-11-14T05:04:05;21.13;;;10.87;;
7057;SDS011;3570;43.080;25.628;2022-11-14T05:06:49;30.90;;;12.13;;
7057;SDS011;3570;43.080;25.628;2022-11-14T05:09:33;16.77;;;11.33;;
7057;SDS011;3570;43.080;25.628;2022-11-14T05:12:19;19.27;;;9.63;;
7057;SDS011;3570;43.080;25.628;2022-11-14T05:15:03;16.87;;;9.67;;
7057;SDS011;3570;43.080;25.628;2022-11-14T05:17:47;21.63;;;10.60;;
7057;SDS011;3570;43.080;25.628;2022-11-14T05:20:32;17.00;;;8.13;;
7057;SDS011;3570;43.080;25.628;2022-11-14T05:23:20;17.03;;;9.40;;
7057;SDS011;3570;43.080;25.628;2022-11-14T05:26:07;19.63;;;9.57;;
7057;SDS011;3570;43.080;25.628;2022-11-14T05:28:53;15.80;;;8.77;;
7057;SDS011;3570;43.080;25.628;2022-11-14T05:31:37;22.33;;;9.70;;
7057;SDS011;3570;43.080;25.628;2022-11-14T05:34:21;21.70;;;9.53;;
7057;SDS011;3570;43.080;25.628;2022-11-14T05:37:05;19.73;;;10.70;;
7057;SDS011;3570;43.080;25.628;2022-11-14T05:39:49;15.77;;;8.90;;
7057;SDS011;3570;43.080;25.628;2022-11-14T05:42:33;17.10;;;9.00;;
7057;SDS011;3570;43.080;25.628;2022-11-14T05:45:17;21.07;;;11.10;;
7057;SDS011;3570;43.080;25.628;2022-11-14T05:48:01;17.27;;;9.90;;
7057;SDS011;3570;43.080;25.628;2022-11-14T05:50:46;19.00;;;10.87;;
7057;SDS011;3570;43.080;25.628;2022-11-14T05:53:30;19.17;;;10.33;;
7057;SDS011;3570;43.080;25.628;2022-11-14T05:56:16;19.17;;;11.40;;
7057;SDS011;3570;43.080;25.628;2022-11-14T05:59:00;21.60;;;11.10;;
7057;SDS011;3570;43.080;25.628;2022-11-14T06:01:43;26.17;;;12.67;;
7057;SDS011;3570;43.080;25.628;2022-11-14T06:04:27;27.13;;;11.33;;
7057;SDS011;3570;43.080;25.628;2022-11-14T06:07:11;20.67;;;10.10;;
7057;SDS011;3570;43.080;25.628;2022-11-14T06:09:55;25.07;;;11.73;;
7057;SDS011;3570;43.080;25.628;2022-11-14T06:12:39;22.40;;;10.63;;
7057;SDS011;3570;43.080;25.628;2022-11-14T06:15:23;25.53;;;13.33;;
7057;SDS011;3570;43.080;25.628;2022-11-14T06:18:07;33.37;;;12.47;;
7057;SDS011;3570;43.080;25.628;2022-11-14T06:20:51;27.30;;;13.20;;
7057;SDS011;3570;43.080;25.628;2022-11-14T06:23:35;30.33;;;14.40;;
7057;SDS011;3570;43.080;25.628;2022-11-14T06:26:20;24.60;;;12.30;;
7057;SDS011;3570;43.080;25.628;2022-11-14T06:29:06;29.90;;;14.60;;
7057;SDS011;3570;43.080;25.628;2022-11-14T06:31:50;36.50;;;17.67;;
7057;SDS011;3570;43.080;25.628;2022-11-14T06:34:34;34.80;;;17.10;;
7057;SDS011;3570;43.080;25.628;2022-11-14T06:37:18;35.47;;;17.23;;
7057;SDS011;3570;43.080;25.628;2022-11-14T06:40:02;39.20;;;21.47;;
7057;SDS011;3570;43.080;25.628;2022-11-14T06:42:47;42.93;;;19.23;;
7057;SDS011;3570;43.080;25.628;2022-11-14T06:45:31;40.70;;;18.23;;
7057;SDS011;3570;43.080;25.628;2022-11-14T06:48:14;34.83;;;17.37;;
7057;SDS011;3570;43.080;25.628;2022-11-14T06:50:59;32.30;;;16.87;;
7057;SDS011;3570;43.080;25.628;2022-11-14T06:53:43;31.60;;;16.63;;
7057;SDS011;3570;43.080;25.628;2022-11-14T06:56:28;33.93;;;16.40;;
7057;SDS011;3570;43.080;25.628;2022-11-14T06:59:12;32.00;;;15.77;;
7057;SDS011;3570;43.080;25.628;2022-11-14T07:01:57;35.33;;;15.33;;
7057;SDS011;3570;43.080;25.628;2022-11-14T07:04:41;31.57;;;14.83;;
7057;SDS011;3570;43.080;25.628;2022-11-14T07:07:25;28.87;;;13.97;;
7057;SDS011;3570;43.080;25.628;2022-11-14T07:10:09;28.80;;;15.10;;
7057;SDS011;3570;43.080;25.628;2022-11-14T07:12:54;30.80;;;13.63;;
7057;SDS011;3570;43.080;25.628;2022-11-14T07:15:38;34.70;;;14.40;;
7057;SDS011;3570;43.080;25.628;2022-11-14T07:18:22;29.87;;;14.50;;
7057;SDS011;3570;43.080;25.628;2022-11-14T07:21:06;32.10;;;14.60;;
7057;SDS011;3570;43.080;25.628;2022-11-14T07:23:51;35.20;;;15.50;;
7057;SDS011;3570;43.080;25.628;2022-11-14T07:26:35;29.93;;;14.87;;
7057;SDS011;3570;43.080;25.628;2022-11-14T07:29:19;33.83;;;15.73;;
7057;SDS011;3570;43.080;25.628;2022-11-14T07:32:03;33.00;;;16.47;;
7057;SDS011;3570;43.080;25.628;2022-11-14T07:34:48;26.87;;;15.93;;
7057;SDS011;3570;43.080;25.628;2022-11-14T07:37:31;33.30;;;16.17;;
7057;SDS011;3570;43.080;25.628;2022-11-14T07:40:16;31.67;;;17.67;;
7057;SDS011;3570;43.080;25.628;2022-11-14T07:43:01;32.23;;;15.50;;
7057;SDS011;3570;43.080;25.628;2022-11-14T07:45:45;33.60;;;15.67;;
7057;SDS011;3570;43.080;25.628;2022-11-14T07:48:29;40.40;;;17.47;;
7057;SDS011;3570;43.080;25.628;2022-11-14T07:51:15;33.90;;;16.63;;
7057;SDS011;3570;43.080;25.628;2022-11-14T07:54:01;35.00;;;16.77;;
7057;SDS011;3570;43.080;25.628;2022-11-14T07:56:44;32.80;;;16.33;;
7057;SDS011;3570;43.080;25.628;2022-11-14T07:59:28;30.97;;;16.10;;
7057;SDS011;3570;43.080;25.628;2022-11-14T08:02:13;30.90;;;17.13;;
7057;SDS011;3570;43.080;25.628;2022-11-14T08:04:58;36.30;;;16.53;;
7057;SDS011;3570;43.080;25.628;2022-11-14T08:07:42;35.83;;;17.07;;
7057;SDS011;3570;43.080;25.628;2022-11-14T08:10:26;35.57;;;15.03;;
7057;SDS011;3570;43.080;25.628;2022-11-14T08:13:11;39.87;;;18.30;;
7057;SDS011;3570;43.080;25.628;2022-11-14T08:15:55;32.03;;;16.77;;
7057;SDS011;3570;43.080;25.628;2022-11-14T08:18:39;33.43;;;17.43;;
7057;SDS011;3570;43.080;25.628;2022-11-14T08:21:23;35.97;;;17.50;;
7057;SDS011;3570;43.080;25.628;2022-11-14T08:24:07;31.10;;;16.77;;
7057;SDS011;3570;43.080;25.628;2022-11-14T08:26:51;31.93;;;16.37;;
7057;SDS011;3570;43.080;25.628;2022-11-14T08:29:35;31.37;;;17.73;;
7057;SDS011;3570;43.080;25.628;2022-11-14T08:32:20;26.63;;;15.23;;
7057;SDS011;3570;43.080;25.628;2022-11-14T08:35:04;29.67;;;15.23;;
7057;SDS011;3570;43.080;25.628;2022-11-14T08:37:49;31.57;;;16.23;;
7057;SDS011;3570;43.080;25.628;2022-11-14T08:40:37;35.17;;;15.50;;
7057;SDS011;3570;43.080;25.628;2022-11-14T08:43:31;36.03;;;17.00;;
7057;SDS011;3570;43.080;25.628;2022-11-14T08:46:16;33.00;;;15.20;;
7057;SDS011;3570;43.080;25.628;2022-11-14T08:49:00;39.00;;;15.97;;
7057;SDS011;3570;43.080;25.628;2022-11-14T08:51:44;31.63;;;15.07;;
7057;SDS011;3570;43.080;25.628;2022-11-14T08:54:28;28.77;;;15.80;;
7057;SDS011;3570;43.080;25.628;2022-11-14T08:57:12;30.90;;;15.07;;
7057;SDS011;3570;43.080;25.628;2022-11-14T08:59:57;31.93;;;14.90;;
7057;SDS011;3570;43.080;25.628;2022-11-14T09:02:41;25.43;;;14.87;;
7057;SDS011;3570;43.080;25.628;2022-11-14T09:05:25;32.63;;;15.53;;
7057;SDS011;3570;43.080;25.628;2022-11-14T09:08:09;29.47;;;15.67;;
7057;SDS011;3570;43.080;25.628;2022-11-14T09:10:53;25.93;;;15.37;;
7057;SDS011;3570;43.080;25.628;2022-11-14T09:13:37;33.70;;;14.20;;
7057;SDS011;3570;43.080;25.628;2022-11-14T09:16:21;24.67;;;13.17;;
7057;SDS011;3570;43.080;25.628;2022-11-14T09:19:05;29.23;;;13.93;;
7057;SDS011;3570;43.080;25.628;2022-11-14T09:21:49;27.30;;;13.67;;
7057;SDS011;3570;43.080;25.628;2022-11-14T09:24:33;25.53;;;12.23;;
7057;SDS011;3570;43.080;25.628;2022-11-14T09:27:17;21.27;;;11.57;;
7057;SDS011;3570;43.080;25.628;2022-11-14T09:30:01;24.80;;;12.23;;
7057;SDS011;3570;43.080;25.628;2022-11-14T09:32:45;26.00;;;12.30;;
7057;SDS011;3570;43.080;25.628;2022-11-14T09:35:29;26.47;;;12.77;;
7057;SDS011;3570;43.080;25.628;2022-11-14T09:38:14;24.50;;;11.80;;
7057;SDS011;3570;43.080;25.628;2022-11-14T09:46:58;25.63;;;12.17;;
7057;SDS011;3570;43.080;25.628;2022-11-14T09:49:48;22.27;;;12.17;;
7057;SDS011;3570;43.080;25.628;2022-11-14T09:52:37;22.47;;;12.00;;
7057;SDS011;3570;43.080;25.628;2022-11-14T09:55:28;21.10;;;11.20;;
7057;SDS011;3570;43.080;25.628;2022-11-14T09:58:17;24.30;;;11.50;;
7057;SDS011;3570;43.080;25.628;2022-11-14T10:01:04;18.60;;;9.43;;
7057;SDS011;3570;43.080;25.628;2022-11-14T10:04:00;19.07;;;10.47;;
7057;SDS011;3570;43.080;25.628;2022-11-14T10:24:47;25.00;;;11.57;;
7057;SDS011;3570;43.080;25.628;2022-11-14T10:27:34;31.97;;;15.47;;
7057;SDS011;3570;43.080;25.628;2022-11-14T10:30:46;26.60;;;16.17;;
7057;SDS011;3570;43.080;25.628;2022-11-14T10:33:52;22.73;;;11.97;;
7057;SDS011;3570;43.080;25.628;2022-11-14T10:39:56;18.70;;;11.00;;
7057;SDS011;3570;43.080;25.628;2022-11-14T10:42:59;22.70;;;10.47;;
7057;SDS011;3570;43.080;25.628;2022-11-14T10:45:50;20.87;;;10.50;;
7057;SDS011;3570;43.080;25.628;2022-11-14T10:48:44;26.40;;;13.03;;
7057;SDS011;3570;43.080;25.628;2022-11-14T10:51:34;27.77;;;13.27;;
7057;SDS011;3570;43.080;25.628;2022-11-14T10:57:17;31.57;;;16.47;;
7057;SDS011;3570;43.080;25.628;2022-11-14T11:00:14;26.73;;;15.07;;
7057;SDS011;3570;43.080;25.628;2022-11-14T11:03:00;27.10;;;14.23;;
7057;SDS011;3570;43.080;25.628;2022-11-14T11:05:47;26.17;;;14.40;;
7057;SDS011;3570;43.080;25.628;2022-11-14T11:08:39;29.87;;;15.27;;
7057;SDS011;3570;43.080;25.628;2022-11-14T11:11:51;29.27;;;14.00;;
7057;SDS011;3570;43.080;25.628;2022-11-14T11:14:39;25.53;;;13.27;;
7057;SDS011;3570;43.080;25.628;2022-11-14T11:17:24;34.20;;;14.03;;
7057;SDS011;3570;43.080;25.628;2022-11-14T11:20:22;28.53;;;14.40;;
7057;SDS011;3570;43.080;25.628;2022-11-14T11:25:58;27.33;;;14.93;;
7057;SDS011;3570;43.080;25.628;2022-11-14T11:31:53;25.13;;;13.87;;
7057;SDS011;3570;43.080;25.628;2022-11-14T11:34:39;21.73;;;11.87;;
7057;SDS011;3570;43.080;25.628;2022-11-14T11:37:24;22.00;;;11.40;;
7057;SDS011;3570;43.080;25.628;2022-11-14T11:40:16;25.63;;;12.73;;
7057;SDS011;3570;43.080;25.628;2022-11-14T11:43:10;25.40;;;13.27;;
7057;SDS011;3570;43.080;25.628;2022-11-14T11:45:59;24.93;;;13.87;;
7057;SDS011;3570;43.080;25.628;2022-11-14T11:48:48;18.90;;;11.13;;
7057;SDS011;3570;43.080;25.628;2022-11-14T11:51:40;17.43;;;10.03;;
7057;SDS011;3570;43.080;25.628;2022-11-14T11:54:48;25.40;;;12.83;;
7057;SDS011;3570;43.080;25.628;2022-11-14T11:57:41;32.57;;;17.93;;
7057;SDS011;3570;43.080;25.628;2022-11-14T12:00:27;23.03;;;12.03;;
7057;SDS011;3570;43.080;25.628;2022-11-14T12:03:12;25.13;;;12.27;;
7057;SDS011;3570;43.080;25.628;2022-11-14T12:12:00;21.83;;;10.67;;
7057;SDS011;3570;43.080;25.628;2022-11-14T12:33:03;18.17;;;10.70;;
7057;SDS011;3570;43.080;25.628;2022-11-14T12:35:54;21.17;;;10.43;;
7057;SDS011;3570;43.080;25.628;2022-11-14T12:38:44;25.13;;;11.77;;
7057;SDS011;3570;43.080;25.628;2022-11-14T12:41:33;17.50;;;8.67;;
7057;SDS011;3570;43.080;25.628;2022-11-14T12:47:12;21.00;;;9.63;;
7057;SDS011;3570;43.080;25.628;2022-11-14T12:50:09;17.23;;;9.07;;
7057;SDS011;3570;43.080;25.628;2022-11-14T13:02:26;24.60;;;11.87;;
7057;SDS011;3570;43.080;25.628;2022-11-14T13:11:48;22.03;;;10.73;;
7057;SDS011;3570;43.080;25.628;2022-11-14T13:14:54;24.63;;;11.80;;
7057;SDS011;3570;43.080;25.628;2022-11-14T13:18:01;23.57;;;12.47;;
7057;SDS011;3570;43.080;25.628;2022-11-14T13:21:25;27.70;;;12.17;;
7057;SDS011;3570;43.080;25.628;2022-11-14T13:27:42;23.50;;;11.83;;
7057;SDS011;3570;43.080;25.628;2022-11-14T13:33:54;31.77;;;15.00;;
7057;SDS011;3570;43.080;25.628;2022-11-14T13:36:53;31.30;;;13.73;;
7057;SDS011;3570;43.080;25.628;2022-11-14T13:40:13;23.73;;;12.80;;
7057;SDS011;3570;43.080;25.628;2022-11-14T13:43:15;23.10;;;11.33;;
7057;SDS011;3570;43.080;25.628;2022-11-14T13:46:33;20.30;;;10.90;;
7057;SDS011;3570;43.080;25.628;2022-11-14T13:52:39;26.47;;;13.53;;
7057;SDS011;3570;43.080;25.628;2022-11-14T14:04:21;22.07;;;12.30;;
7057;SDS011;3570;43.080;25.628;2022-11-14T14:13:55;24.80;;;13.10;;
7057;SDS011;3570;43.080;25.628;2022-11-14T14:17:03;21.17;;;11.30;;
7057;SDS011;3570;43.080;25.628;2022-11-14T14:20:04;18.67;;;10.17;;
7057;SDS011;3570;43.080;25.628;2022-11-14T14:29:44;21.77;;;11.10;;
7057;SDS011;3570;43.080;25.628;2022-11-14T14:32:38;19.83;;;9.97;;
7057;SDS011;3570;43.080;25.628;2022-11-14T14:35:24;21.83;;;10.13;;
7057;SDS011;3570;43.080;25.628;2022-11-14T14:38:12;17.00;;;9.37;;
7057;SDS011;3570;43.080;25.628;2022-11-14T14:41:09;16.20;;;8.23;;
7057;SDS011;3570;43.080;25.628;2022-11-14T14:43:56;24.10;;;11.47;;
7057;SDS011;3570;43.080;25.628;2022-11-14T14:46:42;19.07;;;10.17;;
7057;SDS011;3570;43.080;25.628;2022-11-14T14:49:27;16.77;;;8.80;;
7057;SDS011;3570;43.080;25.628;2022-11-14T14:52:34;16.07;;;8.83;;
7057;SDS011;3570;43.080;25.628;2022-11-14T14:55:24;20.97;;;10.20;;
7057;SDS011;3570;43.080;25.628;2022-11-14T15:01:18;17.50;;;9.80;;
7057;SDS011;3570;43.080;25.628;2022-11-14T15:04:24;22.80;;;10.73;;
7057;SDS011;3570;43.080;25.628;2022-11-14T15:07:17;20.33;;;11.10;;
7057;SDS011;3570;43.080;25.628;2022-11-14T15:10:04;19.70;;;11.13;;
7057;SDS011;3570;43.080;25.628;2022-11-14T15:12:51;21.90;;;11.30;;
7057;SDS011;3570;43.080;25.628;2022-11-14T15:15:36;22.13;;;11.47;;
7057;SDS011;3570;43.080;25.628;2022-11-14T15:18:25;24.07;;;11.03;;
7057;SDS011;3570;43.080;25.628;2022-11-14T15:21:15;24.60;;;11.90;;
7057;SDS011;3570;43.080;25.628;2022-11-14T15:24:20;24.27;;;11.33;;
7057;SDS011;3570;43.080;25.628;2022-11-14T15:27:13;26.77;;;11.43;;
7057;SDS011;3570;43.080;25.628;2022-11-14T15:30:00;24.93;;;13.60;;
7057;SDS011;3570;43.080;25.628;2022-11-14T15:32:46;28.53;;;14.43;;
7057;SDS011;3570;43.080;25.628;2022-11-14T15:35:33;25.17;;;13.80;;
7057;SDS011;3570;43.080;25.628;2022-11-14T15:38:22;25.67;;;12.57;;
7057;SDS011;3570;43.080;25.628;2022-11-14T15:41:08;32.30;;;15.10;;
7057;SDS011;3570;43.080;25.628;2022-11-14T15:44:27;26.43;;;13.57;;
7057;SDS011;3570;43.080;25.628;2022-11-14T15:53:01;28.30;;;12.87;;
7057;SDS011;3570;43.080;25.628;2022-11-14T15:55:48;32.57;;;12.80;;
7057;SDS011;3570;43.080;25.628;2022-11-14T15:58:32;22.77;;;12.03;;
7057;SDS011;3570;43.080;25.628;2022-11-14T16:01:17;26.90;;;13.17;;
7057;SDS011;3570;43.080;25.628;2022-11-14T16:04:07;23.93;;;12.30;;
7057;SDS011;3570;43.080;25.628;2022-11-14T16:06:57;30.20;;;14.17;;
7057;SDS011;3570;43.080;25.628;2022-11-14T16:09:41;30.23;;;15.37;;
7057;SDS011;3570;43.080;25.628;2022-11-14T16:12:26;30.53;;;14.53;;
7057;SDS011;3570;43.080;25.628;2022-11-14T16:15:10;35.27;;;13.53;;
7057;SDS011;3570;43.080;25.628;2022-11-14T16:17:55;32.00;;;14.50;;
7057;SDS011;3570;43.080;25.628;2022-11-14T16:20:39;35.07;;;16.23;;
7057;SDS011;3570;43.080;25.628;2022-11-14T16:23:24;39.50;;;15.50;;
7057;SDS011;3570;43.080;25.628;2022-11-14T16:26:08;32.40;;;15.13;;
7057;SDS011;3570;43.080;25.628;2022-11-14T16:28:52;37.80;;;16.00;;
7057;SDS011;3570;43.080;25.628;2022-11-14T16:31:36;40.90;;;15.57;;
7057;SDS011;3570;43.080;25.628;2022-11-14T16:34:22;37.90;;;16.07;;
7057;SDS011;3570;43.080;25.628;2022-11-14T16:37:08;31.50;;;13.87;;
7057;SDS011;3570;43.080;25.628;2022-11-14T16:39:55;29.27;;;13.50;;
7057;SDS011;3570;43.080;25.628;2022-11-14T16:42:39;31.70;;;13.80;;
7057;SDS011;3570;43.080;25.628;2022-11-14T16:45:23;32.73;;;15.77;;
7057;SDS011;3570;43.080;25.628;2022-11-14T16:48:09;38.13;;;16.00;;
7057;SDS011;3570;43.080;25.628;2022-11-14T16:50:52;33.63;;;14.27;;
7057;SDS011;3570;43.080;25.628;2022-11-14T16:53:36;35.93;;;16.37;;
7057;SDS011;3570;43.080;25.628;2022-11-14T16:56:20;31.50;;;15.03;;
7057;SDS011;3570;43.080;25.628;2022-11-14T16:59:05;36.67;;;15.80;;
7057;SDS011;3570;43.080;25.628;2022-11-14T17:01:50;42.23;;;16.67;;
7057;SDS011;3570;43.080;25.628;2022-11-14T17:04:34;38.17;;;16.93;;
7057;SDS011;3570;43.080;25.628;2022-11-14T17:07:18;30.67;;;12.70;;
7057;SDS011;3570;43.080;25.628;2022-11-14T17:10:03;31.40;;;12.97;;
7057;SDS011;3570;43.080;25.628;2022-11-14T17:12:48;21.07;;;11.27;;
7057;SDS011;3570;43.080;25.628;2022-11-14T17:15:32;30.17;;;13.90;;
7057;SDS011;3570;43.080;25.628;2022-11-14T17:18:16;34.13;;;15.17;;
7057;SDS011;3570;43.080;25.628;2022-11-14T17:21:04;34.90;;;13.47;;
7057;SDS011;3570;43.080;25.628;2022-11-14T17:23:53;38.27;;;16.17;;
7057;SDS011;3570;43.080;25.628;2022-11-14T17:26:38;35.23;;;13.63;;
7057;SDS011;3570;43.080;25.628;2022-11-14T17:29:22;37.47;;;15.90;;
7057;SDS011;3570;43.080;25.628;2022-11-14T17:32:06;37.40;;;15.07;;
7057;SDS011;3570;43.080;25.628;2022-11-14T17:34:50;33.47;;;13.93;;
7057;SDS011;3570;43.080;25.628;2022-11-14T17:37:34;35.57;;;15.30;;
7057;SDS011;3570;43.080;25.628;2022-11-14T17:40:18;31.90;;;16.30;;
7057;SDS011;3570;43.080;25.628;2022-11-14T17:43:02;31.20;;;14.10;;
7057;SDS011;3570;43.080;25.628;2022-11-14T17:45:56;37.50;;;16.63;;
7057;SDS011;3570;43.080;25.628;2022-11-14T17:48:40;33.30;;;16.87;;
7057;SDS011;3570;43.080;25.628;2022-11-14T17:51:24;34.90;;;15.40;;
7057;SDS011;3570;43.080;25.628;2022-11-14T17:54:09;36.30;;;14.43;;
7057;SDS011;3570;43.080;25.628;2022-11-14T17:56:53;33.20;;;15.73;;
7057;SDS011;3570;43.080;25.628;2022-11-14T17:59:37;39.87;;;14.90;;
7057;SDS011;3570;43.080;25.628;2022-11-14T18:02:23;39.20;;;15.53;;
7057;SDS011;3570;43.080;25.628;2022-11-14T18:05:07;26.20;;;14.57;;
7057;SDS011;3570;43.080;25.628;2022-11-14T18:07:51;43.47;;;16.83;;
7057;SDS011;3570;43.080;25.628;2022-11-14T18:10:35;32.53;;;15.23;;
7057;SDS011;3570;43.080;25.628;2022-11-14T18:13:19;32.47;;;14.43;;
7057;SDS011;3570;43.080;25.628;2022-11-14T18:16:21;33.63;;;14.50;;
7057;SDS011;3570;43.080;25.628;2022-11-14T18:19:07;33.40;;;13.77;;
7057;SDS011;3570;43.080;25.628;2022-11-14T18:21:51;35.07;;;15.53;;
7057;SDS011;3570;43.080;25.628;2022-11-14T18:24:35;36.63;;;15.33;;
7057;SDS011;3570;43.080;25.628;2022-11-14T18:27:19;38.93;;;14.93;;
7057;SDS011;3570;43.080;25.628;2022-11-14T18:30:04;31.97;;;14.93;;
7057;SDS011;3570;43.080;25.628;2022-11-14T18:32:48;35.57;;;15.57;;
7057;SDS011;3570;43.080;25.628;2022-11-14T18:35:32;33.07;;;17.23;;
7057;SDS011;3570;43.080;25.628;2022-11-14T18:38:16;63.77;;;26.53;;